Time;durP1;ratioP1;P1;durP2;ratioP2;P2;SDS_P1;SDS_P2;PMS_P1;PMS_P2;Temp;Humidity;BMP_temperature;BMP_pressure;BME280_temperature;BME280_humidity;BME280_pressure;Samples;Min_cycle;Max_cycle;Signal;HPM_P1;HPM_P2
2022/10/27 00:01:03;;;;;;;15.10;8.90;;;12.60;99.90;;;;;;4941660;29;20047;-70
2022/10/27 00:03:29;;;;;;;14.40;9.13;;;12.50;99.90;;;;;;4944393;28;20078;-70
2022/10/27 00:05:55;;;;;;;15.90;9.10;;;12.40;99.90;;;;;;4942831;29;20055;-70
2022/10/27 00:08:21;;;;;;;16.27;8.93;;;12.30;99.90;;;;;;4947175;29;20067;-70
2022/10/27 00:10:57;;;;;;;13.82;9.25;;;12.30;99.90;;;;;;4946325;28;20135;-70
2022/10/27 00:13:23;;;;;;;26.33;9.05;;;12.20;99.90;;;;;;4945378;28;20036;-70
2022/10/27 00:15:59;;;;;;;14.45;8.20;;;12.20;99.90;;;;;;4948509;29;20039;-70
2022/10/27 00:18:25;;;;;;;11.60;8.25;;;12.20;99.90;;;;;;4936489;29;20058;-70
2022/10/27 00:21:03;;;;;;;18.90;10.20;;;12.10;99.90;;;;;;4944557;28;20032;-70
2022/10/27 00:23:29;;;;;;;16.73;10.95;;;12.20;99.90;;;;;;4949896;28;20072;-70
2022/10/27 00:25:55;;;;;;;19.27;10.90;;;12.30;99.90;;;;;;4939485;29;20048;-70
2022/10/27 00:28:21;;;;;;;20.55;11.30;;;12.40;99.90;;;;;;4942313;29;20055;-69
2022/10/27 00:30:47;;;;;;;27.00;11.65;;;12.40;99.90;;;;;;4948584;29;20043;-69
2022/10/27 00:33:12;;;;;;;21.55;11.77;;;12.60;99.90;;;;;;4941305;29;20055;-69
2022/10/27 00:35:38;;;;;;;21.50;12.52;;;12.60;99.90;;;;;;4939940;29;20495;-69
2022/10/27 00:38:04;;;;;;;21.20;11.88;;;12.80;99.90;;;;;;4932117;29;20410;-69
2022/10/27 00:40:36;;;;;;;22.65;12.40;;;12.80;99.90;;;;;;4938847;29;20134;-69
2022/10/27 00:43:01;;;;;;;19.80;11.63;;;12.90;99.90;;;;;;4943636;28;20042;-70
2022/10/27 00:45:27;;;;;;;17.35;11.07;;;12.90;99.90;;;;;;4944208;29;20454;-69
2022/10/27 00:47:53;;;;;;;18.10;10.95;;;12.90;99.90;;;;;;4944929;29;20059;-69
2022/10/27 00:50:22;;;;;;;17.70;10.30;;;12.90;99.90;;;;;;4937305;29;20039;-69
2022/10/27 00:52:54;;;;;;;17.05;10.70;;;12.90;99.90;;;;;;4939269;29;20043;-70
2022/10/27 00:55:23;;;;;;;17.25;10.05;;;12.80;99.90;;;;;;4939499;29;20122;-69
2022/10/27 00:57:52;;;;;;;15.63;9.82;;;12.80;99.90;;;;;;4949615;29;20102;-69
2022/10/27 01:00:18;;;;;;;20.13;10.85;;;12.90;99.90;;;;;;4934897;29;20047;-70
2022/10/27 01:02:45;;;;;;;16.95;11.50;;;12.90;99.90;;;;;;4938681;29;20051;-69
2022/10/27 01:05:19;;;;;;;18.98;11.18;;;12.90;99.90;;;;;;4941134;29;20081;-70
2022/10/27 01:07:46;;;;;;;20.13;11.55;;;13.10;99.90;;;;;;4936666;29;20043;-70
2022/10/27 01:10:13;;;;;;;25.30;11.57;;;13.10;99.90;;;;;;4941701;29;20049;-69
2022/10/27 01:12:40;;;;;;;18.60;12.02;;;13.20;99.90;;;;;;4942134;28;20043;-70
2022/10/27 01:15:06;;;;;;;19.77;12.68;;;13.20;99.90;;;;;;4940222;29;20417;-69
2022/10/27 01:17:48;;;;;;;24.75;13.15;;;13.30;99.90;;;;;;4936006;29;20493;-69
2022/10/27 01:20:31;;;;;;;27.88;12.60;;;13.50;99.90;;;;;;4940029;29;20079;-69
2022/10/27 01:23:08;;;;;;;21.40;12.50;;;13.50;99.90;;;;;;4941600;29;20031;-69
2022/10/27 01:26:05;;;;;;;16.50;11.20;;;13.50;99.90;;;;;;4938806;29;20058;-69
2022/10/27 01:29:07;;;;;;;22.38;12.10;;;13.60;99.90;;;;;;4946851;29;20660;-69
2022/10/27 01:31:40;;;;;;;18.42;12.35;;;13.60;99.90;;;;;;4944914;28;20074;-71
2022/10/27 01:34:29;;;;;;;24.02;12.75;;;13.60;99.90;;;;;;4937874;29;20047;-69
2022/10/27 01:37:02;;;;;;;23.90;12.57;;;13.60;99.90;;;;;;4937764;29;20039;-70
2022/10/27 01:39:40;;;;;;;21.58;12.82;;;13.70;99.90;;;;;;4940675;28;20048;-70
2022/10/27 01:42:10;;;;;;;17.85;12.23;;;13.60;99.90;;;;;;4934787;29;20122;-70
2022/10/27 01:44:46;;;;;;;22.38;12.25;;;13.70;99.90;;;;;;4945177;29;20387;-70
2022/10/27 01:47:13;;;;;;;22.90;12.82;;;13.70;99.90;;;;;;4942442;29;20039;-70
2022/10/27 01:49:41;;;;;;;20.45;12.00;;;13.70;99.90;;;;;;4941807;28;20043;-70
2022/10/27 01:52:48;;;;;;;18.42;11.57;;;13.70;99.90;;;;;;4944789;29;20533;-70
2022/10/27 01:55:21;;;;;;;16.23;10.95;;;13.70;99.90;;;;;;4943359;29;20086;-70
2022/10/27 01:57:52;;;;;;;;;;;13.70;99.90;;;;;;4935807;29;20051;-70
2022/10/27 02:00:18;;;;;;;24.08;11.32;;;13.70;99.90;;;;;;4946741;29;20377;-70
2022/10/27 02:03:00;;;;;;;21.85;11.93;;;13.80;99.90;;;;;;4938673;29;20039;-70
2022/10/27 02:05:41;;;;;;;22.73;11.90;;;14.00;99.90;;;;;;4937398;29;20777;-70
2022/10/27 02:08:16;;;;;;;22.33;12.25;;;14.00;99.90;;;;;;4938010;29;20062;-70
2022/10/27 02:10:54;;;;;;;19.38;12.10;;;14.00;99.90;;;;;;4945675;29;20040;-70
2022/10/27 02:13:20;;;;;;;22.52;11.82;;;13.90;99.90;;;;;;4938463;29;20079;-70
2022/10/27 02:15:56;;;;;;;22.25;12.18;;;13.90;99.90;;;;;;4941712;28;20095;-70
2022/10/27 02:18:35;;;;;;;18.20;11.57;;;13.80;99.90;;;;;;4945489;29;20050;-70
2022/10/27 02:21:05;;;;;;;22.08;12.20;;;13.70;99.90;;;;;;4945232;29;20047;-70
2022/10/27 02:23:31;;;;;;;20.00;12.55;;;13.60;99.90;;;;;;4945703;29;20047;-70
2022/10/27 02:26:22;;;;;;;20.17;11.95;;;13.60;99.90;;;;;;4944550;28;20036;-70
2022/10/27 02:28:57;;;;;;;21.20;12.30;;;13.50;99.90;;;;;;4928889;29;20091;-70
2022/10/27 02:31:30;;;;;;;18.65;12.00;;;13.40;99.90;;;;;;4945326;29;20039;-70
2022/10/27 02:33:57;;;;;;;19.98;11.93;;;13.40;99.90;;;;;;4939355;29;20046;-70
2022/10/27 02:36:22;;;;;;;17.75;12.07;;;13.30;99.90;;;;;;4946522;29;20148;-70
2022/10/27 02:38:48;;;;;;;20.77;12.13;;;13.20;99.90;;;;;;4947423;28;20554;-70
2022/10/27 02:41:14;;;;;;;20.23;12.15;;;13.20;99.90;;;;;;4946035;29;20094;-70
2022/10/27 02:43:39;;;;;;;22.00;12.60;;;13.20;99.90;;;;;;4944917;29;20043;-70
2022/10/27 02:46:05;;;;;;;23.60;12.40;;;13.10;99.90;;;;;;4945684;29;20088;-70
2022/10/27 02:48:31;;;;;;;19.63;11.93;;;13.10;99.90;;;;;;4951855;29;20035;-70
2022/10/27 02:50:56;;;;;;;20.92;12.32;;;13.10;99.90;;;;;;4946877;29;20047;-70
2022/10/27 02:53:22;;;;;;;25.23;12.60;;;13.00;99.90;;;;;;4937658;29;20402;-70
2022/10/27 02:55:48;;;;;;;23.02;12.77;;;13.00;99.90;;;;;;4946971;29;20490;-70
2022/10/27 02:58:13;;;;;;;24.52;13.27;;;13.00;99.90;;;;;;4940034;29;20039;-70
2022/10/27 03:00:39;;;;;;;26.73;15.13;;;13.00;99.90;;;;;;4948919;29;20035;-70
2022/10/27 03:03:05;;;;;;;26.23;13.57;;;13.00;99.90;;;;;;4942667;29;20048;-70
2022/10/27 03:05:30;;;;;;;20.88;13.30;;;12.90;99.90;;;;;;4939668;29;20138;-70
2022/10/27 03:07:56;;;;;;;20.65;13.75;;;12.80;99.90;;;;;;4944980;29;20133;-70
2022/10/27 03:10:21;;;;;;;21.92;14.00;;;12.80;99.90;;;;;;4952051;29;20418;-70
2022/10/27 03:12:47;;;;;;;26.02;13.85;;;12.80;99.90;;;;;;4938739;29;20047;-70
2022/10/27 03:15:14;;;;;;;22.88;13.82;;;12.80;99.90;;;;;;4948747;28;20402;-70
2022/10/27 03:17:46;;;;;;;21.23;13.77;;;12.70;99.90;;;;;;4936825;29;20122;-70
2022/10/27 03:20:13;;;;;;;23.25;14.20;;;12.70;99.90;;;;;;4942086;29;20125;-70
2022/10/27 03:22:39;;;;;;;24.33;13.95;;;12.70;99.90;;;;;;4936936;29;20498;-70
2022/10/27 03:25:05;;;;;;;25.38;14.25;;;12.70;99.90;;;;;;4941672;29;20056;-70
2022/10/27 03:27:31;;;;;;;24.45;14.82;;;12.70;99.90;;;;;;4947061;28;20498;-70
2022/10/27 03:29:57;;;;;;;27.55;15.73;;;12.80;99.90;;;;;;4937527;28;20043;-70
2022/10/27 03:32:22;;;;;;;29.63;15.60;;;12.80;99.90;;;;;;4945352;29;20050;-70
2022/10/27 03:34:48;;;;;;;22.98;15.48;;;12.80;99.90;;;;;;4945533;29;20465;-70
2022/10/27 03:37:14;;;;;;;26.95;15.57;;;12.80;99.90;;;;;;4946547;29;20057;-70
2022/10/27 03:39:39;;;;;;;25.58;15.63;;;12.80;99.90;;;;;;4947375;29;20035;-70
2022/10/27 03:42:05;;;;;;;31.48;15.35;;;12.80;99.90;;;;;;4941515;29;20410;-70
2022/10/27 03:44:31;;;;;;;26.80;15.68;;;12.90;99.90;;;;;;4948973;28;20031;-70
2022/10/27 03:46:56;;;;;;;25.77;15.70;;;12.90;99.90;;;;;;4939468;29;20116;-70
2022/10/27 03:49:22;;;;;;;24.75;15.35;;;12.90;99.90;;;;;;4946196;29;20135;-70
2022/10/27 03:51:47;;;;;;;26.38;15.20;;;12.80;99.90;;;;;;4935736;29;20047;-70
2022/10/27 03:54:13;;;;;;;25.30;15.38;;;12.90;99.90;;;;;;4946097;29;20161;-70
2022/10/27 03:56:38;;;;;;;23.70;14.85;;;12.80;99.90;;;;;;4940399;29;20169;-70
2022/10/27 03:59:04;;;;;;;25.70;15.77;;;12.80;99.90;;;;;;4951232;29;20073;-70
2022/10/27 04:01:32;;;;;;;26.02;15.80;;;12.80;99.90;;;;;;4940486;28;20095;-70
2022/10/27 04:03:58;;;;;;;25.67;15.30;;;12.80;99.90;;;;;;4938524;29;20166;-70
2022/10/27 04:06:24;;;;;;;25.92;15.68;;;12.90;99.90;;;;;;4940924;29;20495;-70
2022/10/27 04:08:49;;;;;;;28.50;15.27;;;12.90;99.90;;;;;;4943691;29;20099;-70
2022/10/27 04:11:15;;;;;;;24.98;14.75;;;12.80;99.90;;;;;;4944822;29;20077;-70
2022/10/27 04:13:41;;;;;;;29.67;15.23;;;12.80;99.90;;;;;;4948267;29;20126;-70
2022/10/27 04:16:07;;;;;;;29.55;15.90;;;12.90;99.90;;;;;;4944587;29;20043;-70
2022/10/27 04:18:32;;;;;;;28.63;15.65;;;12.90;99.90;;;;;;4948161;28;20051;-70
2022/10/27 04:21:03;;;;;;;28.08;16.15;;;12.90;99.90;;;;;;4943902;29;20042;-70
2022/10/27 04:23:29;;;;;;;31.90;15.88;;;13.00;99.90;;;;;;4946801;29;20043;-70
2022/10/27 04:25:55;;;;;;;29.77;15.50;;;12.90;99.90;;;;;;4949759;29;20050;-70
2022/10/27 04:28:21;;;;;;;28.55;15.00;;;12.90;99.90;;;;;;4935134;29;20044;-70
2022/10/27 04:30:47;;;;;;;22.45;14.35;;;12.90;99.90;;;;;;4938678;29;20035;-70
2022/10/27 04:33:12;;;;;;;29.23;15.10;;;12.70;99.90;;;;;;4937605;29;20613;-70
2022/10/27 04:35:38;;;;;;;23.77;14.52;;;12.70;99.90;;;;;;4940023;29;20040;-70
2022/10/27 04:38:04;;;;;;;23.42;13.98;;;12.70;99.90;;;;;;4938845;29;20044;-70
2022/10/27 04:40:29;;;;;;;24.02;13.85;;;12.60;99.90;;;;;;4940538;29;20036;-70
2022/10/27 04:42:55;;;;;;;20.27;13.02;;;12.50;99.90;;;;;;4938632;29;20043;-70
2022/10/27 04:45:21;;;;;;;22.02;13.98;;;12.40;99.90;;;;;;4940710;29;20114;-70
2022/10/27 04:47:46;;;;;;;22.88;13.90;;;12.30;99.90;;;;;;4943704;29;20086;-70
2022/10/27 04:50:13;;;;;;;18.98;13.07;;;12.30;99.90;;;;;;4944667;29;20048;-70
2022/10/27 04:52:39;;;;;;;19.40;12.07;;;12.30;99.90;;;;;;4943402;28;20182;-70
2022/10/27 04:55:05;;;;;;;16.10;10.23;;;12.20;99.90;;;;;;4937661;29;20054;-70
2022/10/27 04:57:31;;;;;;;16.90;9.50;;;12.00;99.90;;;;;;4941386;29;20043;-70
2022/10/27 04:59:57;;;;;;;13.10;9.88;;;11.90;99.90;;;;;;4939928;29;20044;-70
2022/10/27 05:02:22;;;;;;;13.30;10.23;;;11.90;99.90;;;;;;4948196;29;20046;-70
2022/10/27 05:04:48;;;;;;;18.38;12.32;;;11.90;99.90;;;;;;4938485;29;20098;-70
2022/10/27 05:07:13;;;;;;;27.40;14.45;;;11.90;99.90;;;;;;4943234;29;20192;-70
2022/10/27 05:09:39;;;;;;;22.17;13.90;;;12.00;99.90;;;;;;4937106;29;20125;-69
2022/10/27 05:12:05;;;;;;;22.83;15.13;;;12.10;99.90;;;;;;4943033;29;20059;-69
2022/10/27 05:14:30;;;;;;;27.23;15.30;;;12.20;99.90;;;;;;4942253;29;20053;-70
2022/10/27 05:16:56;;;;;;;26.80;15.98;;;12.20;99.90;;;;;;4942066;29;20043;-72
2022/10/27 05:19:21;;;;;;;28.73;15.65;;;12.30;99.90;;;;;;4939560;29;20063;-67
2022/10/27 05:21:47;;;;;;;31.25;15.52;;;12.40;99.90;;;;;;4936434;29;20042;-70
2022/10/27 05:24:13;;;;;;;26.45;16.48;;;12.60;99.90;;;;;;4949065;29;20110;-70
2022/10/27 05:26:39;;;;;;;28.08;15.07;;;12.70;99.90;;;;;;4936804;29;20478;-71
2022/10/27 05:29:05;;;;;;;25.02;15.60;;;12.70;99.90;;;;;;4938712;29;20541;-69
2022/10/27 05:31:30;;;;;;;26.88;15.55;;;12.70;99.90;;;;;;4949567;29;20043;-67
2022/10/27 05:33:56;;;;;;;28.08;15.45;;;12.70;99.90;;;;;;4935041;29;20110;-66
2022/10/27 05:36:21;;;;;;;26.52;16.33;;;12.90;99.90;;;;;;4947090;29;20053;-69
2022/10/27 05:38:47;;;;;;;23.23;15.55;;;12.90;99.90;;;;;;4940445;29;20044;-69
2022/10/27 05:41:13;;;;;;;22.90;14.35;;;12.80;99.90;;;;;;4936916;29;20050;-69
2022/10/27 05:43:40;;;;;;;22.50;14.40;;;12.90;99.90;;;;;;4936196;29;20067;-70
2022/10/27 05:46:06;;;;;;;27.10;14.68;;;12.90;99.90;;;;;;4940315;29;20040;-69
2022/10/27 05:48:31;;;;;;;24.95;14.32;;;12.90;99.90;;;;;;4938885;29;20113;-69
2022/10/27 05:50:57;;;;;;;30.50;14.48;;;13.00;99.90;;;;;;4938012;28;20043;-70
2022/10/27 05:53:22;;;;;;;30.52;14.50;;;13.00;99.90;;;;;;4946931;28;20086;-70
2022/10/27 05:55:52;;;;;;;26.83;13.95;;;13.10;99.90;;;;;;4941198;29;20122;-69
2022/10/27 05:58:18;;;;;;;23.75;14.63;;;13.20;99.90;;;;;;4947453;28;20040;-69
2022/10/27 06:00:44;;;;;;;23.58;15.20;;;13.30;99.90;;;;;;4940069;29;20461;-69
2022/10/27 06:03:21;;;;;;;30.77;15.00;;;13.30;99.90;;;;;;4945906;29;20549;-70
2022/10/27 06:05:47;;;;;;;23.50;14.40;;;13.40;99.90;;;;;;4938007;29;20081;-69
2022/10/27 06:08:13;;;;;;;26.25;13.98;;;13.40;99.90;;;;;;4954263;28;20506;-69
2022/10/27 06:10:38;;;;;;;20.10;12.80;;;13.40;99.90;;;;;;4945713;29;20039;-70
2022/10/27 06:13:05;;;;;;;25.33;14.38;;;13.40;99.90;;;;;;4947388;29;20047;-69
2022/10/27 06:15:32;;;;;;;24.33;14.18;;;13.40;99.90;;;;;;4938461;29;20036;-72
2022/10/27 06:17:58;;;;;;;23.95;14.48;;;13.40;99.90;;;;;;4947539;29;20048;-72
2022/10/27 06:20:24;;;;;;;20.85;13.40;;;13.30;99.90;;;;;;4939312;29;20062;-70
2022/10/27 06:22:49;;;;;;;21.75;13.07;;;13.30;99.90;;;;;;4942650;29;20380;-69
2022/10/27 06:25:15;;;;;;;26.98;14.60;;;13.30;99.90;;;;;;4944327;29;20421;-69
2022/10/27 06:27:41;;;;;;;29.95;14.00;;;13.40;99.90;;;;;;4949526;29;20050;-69
2022/10/27 06:30:07;;;;;;;27.65;13.30;;;13.40;99.90;;;;;;4947262;29;20516;-69
2022/10/27 06:32:40;;;;;;;25.55;13.25;;;13.40;99.90;;;;;;4944770;29;20043;-70
2022/10/27 06:35:07;;;;;;;23.42;13.05;;;13.40;99.90;;;;;;4939690;29;20055;-70
2022/10/27 06:37:32;;;;;;;21.38;13.18;;;13.40;99.90;;;;;;4947183;29;20047;-70
2022/10/27 06:39:58;;;;;;;23.60;13.23;;;13.40;99.90;;;;;;4954280;29;20047;-70
2022/10/27 06:42:24;;;;;;;22.65;13.90;;;13.50;99.90;;;;;;4949705;29;20085;-69
2022/10/27 06:44:50;;;;;;;25.35;14.45;;;13.50;99.90;;;;;;4941059;29;20122;-69
2022/10/27 06:47:15;;;;;;;24.23;13.80;;;13.50;99.90;;;;;;4942271;28;20502;-69
2022/10/27 06:49:41;;;;;;;24.52;13.00;;;13.40;99.90;;;;;;4951431;29;20050;-71
2022/10/27 06:52:07;;;;;;;28.45;14.40;;;13.50;99.90;;;;;;4952696;29;20110;-68
2022/10/27 06:54:32;;;;;;;20.50;12.98;;;13.50;99.90;;;;;;4945419;29;20493;-69
2022/10/27 06:56:58;;;;;;;23.45;13.90;;;13.50;99.90;;;;;;4944350;29;20074;-70
2022/10/27 06:59:24;;;;;;;23.30;13.32;;;13.50;99.90;;;;;;4942924;29;20051;-68
2022/10/27 07:01:49;;;;;;;24.38;13.90;;;13.50;99.90;;;;;;4941196;28;20401;-69
2022/10/27 07:04:15;;;;;;;23.73;13.95;;;13.50;99.90;;;;;;4944732;28;20090;-68
2022/10/27 07:06:40;;;;;;;23.10;13.52;;;13.50;99.90;;;;;;4940695;29;20402;-68
2022/10/27 07:09:06;;;;;;;23.73;14.35;;;13.60;99.90;;;;;;4943369;29;20082;-69
2022/10/27 07:11:32;;;;;;;30.80;13.82;;;13.60;99.90;;;;;;4942269;29;20102;-68
2022/10/27 07:13:57;;;;;;;22.50;13.70;;;13.60;99.90;;;;;;4944357;29;20040;-69
2022/10/27 07:16:23;;;;;;;28.23;13.95;;;13.70;99.90;;;;;;4942287;29;20031;-69
2022/10/27 07:18:48;;;;;;;23.20;14.68;;;13.70;99.90;;;;;;4943174;29;20051;-69
2022/10/27 07:21:15;;;;;;;24.30;14.15;;;13.70;99.90;;;;;;4942801;29;20057;-68
2022/10/27 07:23:40;;;;;;;21.60;13.98;;;13.80;99.90;;;;;;4941164;29;20130;-68
2022/10/27 07:26:06;;;;;;;25.65;13.82;;;13.80;99.90;;;;;;4944538;29;20130;-69
2022/10/27 07:28:31;;;;;;;25.77;14.30;;;13.90;99.90;;;;;;4943712;29;20043;-68
2022/10/27 07:30:57;;;;;;;26.55;14.20;;;13.90;99.90;;;;;;4948420;29;20122;-69
2022/10/27 07:33:23;;;;;;;22.90;15.40;;;13.90;99.90;;;;;;4943118;28;20113;-69
2022/10/27 07:35:50;;;;;;;24.38;14.32;;;14.00;99.90;;;;;;4934320;29;20058;-70
2022/10/27 07:38:17;;;;;;;21.75;13.60;;;14.00;99.90;;;;;;4939663;29;20485;-69
2022/10/27 07:40:42;;;;;;;22.40;14.25;;;14.00;99.90;;;;;;4945095;29;20090;-70
2022/10/27 07:43:08;;;;;;;20.83;14.38;;;14.10;99.90;;;;;;4943643;29;20043;-69
2022/10/27 07:45:36;;;;;;;26.77;14.75;;;14.10;99.90;;;;;;4938264;29;20069;-69
2022/10/27 07:48:02;;;;;;;23.35;14.52;;;14.20;99.90;;;;;;4939233;29;20058;-69
2022/10/27 07:50:28;;;;;;;23.98;14.05;;;14.20;99.90;;;;;;4949618;29;20506;-70
2022/10/27 07:52:55;;;;;;;19.48;13.80;;;14.20;99.90;;;;;;4954488;28;20466;-70
2022/10/27 07:55:23;;;;;;;23.30;14.13;;;14.30;99.90;;;;;;4935835;29;20043;-69
2022/10/27 07:58:10;;;;;;;22.88;13.90;;;14.30;99.90;;;;;;4953887;28;20050;-70
2022/10/27 08:00:39;;;;;;;23.33;13.45;;;14.40;99.90;;;;;;4945131;29;20054;-69
2022/10/27 08:03:07;;;;;;;28.83;14.32;;;14.40;99.90;;;;;;4950101;28;20051;-70
2022/10/27 08:05:34;;;;;;;24.08;13.60;;;14.50;99.90;;;;;;4950938;29;20078;-69
2022/10/27 08:08:02;;;;;;;20.23;13.75;;;14.50;99.90;;;;;;4937591;29;20118;-69
2022/10/27 08:10:29;;;;;;;21.35;13.90;;;14.50;99.90;;;;;;4940741;29;20039;-69
2022/10/27 08:12:55;;;;;;;21.98;13.85;;;14.60;99.90;;;;;;4934282;28;20074;-70
2022/10/27 08:15:21;;;;;;;21.30;13.57;;;14.60;99.90;;;;;;4940289;29;20169;-69
2022/10/27 08:17:53;;;;;;;18.75;13.35;;;14.70;99.90;;;;;;4943903;29;20037;-70
2022/10/27 08:20:20;;;;;;;22.70;13.43;;;14.70;99.90;;;;;;4935960;29;20047;-70
2022/10/27 08:22:45;;;;;;;21.88;13.68;;;14.80;99.90;;;;;;4946115;28;20102;-70
2022/10/27 08:25:12;;;;;;;24.42;13.48;;;14.80;99.90;;;;;;4946541;29;20672;-69
2022/10/27 08:27:38;;;;;;;21.10;13.55;;;14.80;99.90;;;;;;4944892;29;20118;-69
2022/10/27 08:30:03;;;;;;;21.13;13.30;;;14.80;99.90;;;;;;4941357;29;20130;-69
2022/10/27 08:32:29;;;;;;;28.60;12.98;;;14.80;99.90;;;;;;4940596;28;20399;-70
2022/10/27 08:34:55;;;;;;;18.88;12.80;;;14.80;99.90;;;;;;4946504;29;20494;-70
2022/10/27 08:37:20;;;;;;;22.98;12.60;;;14.80;99.90;;;;;;4948921;29;20075;-71
2022/10/27 08:39:46;;;;;;;20.75;12.48;;;14.80;99.90;;;;;;4951058;29;20054;-69
2022/10/27 08:42:22;;;;;;;27.52;12.20;;;14.80;99.90;;;;;;4947276;29;20147;-70
2022/10/27 08:45:15;;;;;;;22.63;11.40;;;14.80;99.90;;;;;;4935855;29;20506;-70
2022/10/27 08:47:42;;;;;;;22.95;11.52;;;14.80;99.90;;;;;;4932760;29;20051;-70
2022/10/27 08:50:18;;;;;;;16.30;11.10;;;14.80;99.90;;;;;;4943865;29;20059;-70
2022/10/27 08:52:47;;;;;;;22.55;11.75;;;14.80;99.90;;;;;;4952875;28;20051;-70
2022/10/27 08:55:13;;;;;;;19.33;11.27;;;14.90;99.90;;;;;;4945175;29;20489;-69
2022/10/27 08:58:15;;;;;;;18.23;11.15;;;14.90;99.90;;;;;;4945989;29;20043;-69
2022/10/27 09:01:22;;;;;;;17.73;11.75;;;15.00;99.90;;;;;;4942832;29;20043;-70
2022/10/27 09:03:53;;;;;;;15.95;10.55;;;15.10;99.90;;;;;;4939694;29;20051;-70
2022/10/27 09:06:30;;;;;;;21.20;11.43;;;15.20;99.90;;;;;;4932800;29;20048;-70
2022/10/27 09:08:55;;;;;;;22.33;11.13;;;15.30;99.90;;;;;;4951307;29;20055;-70
2022/10/27 09:11:24;;;;;;;17.70;10.55;;;15.40;99.90;;;;;;4945847;29;20065;-69
2022/10/27 09:14:30;;;;;;;19.27;11.10;;;15.50;99.90;;;;;;4941217;29;20079;-69
2022/10/27 09:17:02;;;;;;;22.45;11.00;;;15.70;99.90;;;;;;4949317;29;20075;-70
2022/10/27 09:19:33;;;;;;;16.60;9.70;;;15.80;99.90;;;;;;4945162;29;20047;-69
2022/10/27 09:22:01;;;;;;;;;;;15.80;99.90;;;;;;4946710;29;20391;-69
2022/10/27 09:24:29;;;;;;;18.40;10.30;;;15.90;99.90;;;;;;4947011;29;19945;-70
2022/10/27 09:26:57;;;;;;;19.23;10.18;;;16.00;99.90;;;;;;4949803;28;20526;-70
2022/10/27 09:29:23;;;;;;;15.23;9.73;;;16.20;99.90;;;;;;4948596;29;20074;-70
2022/10/27 09:31:54;;;;;;;12.15;8.63;;;16.30;99.90;;;;;;4943745;29;20081;-70
2022/10/27 09:34:41;;;;;;;24.77;10.02;;;16.40;99.90;;;;;;4950853;28;20039;-70
2022/10/27 09:37:14;;;;;;;16.52;8.55;;;16.60;99.90;;;;;;4936977;29;20048;-70
2022/10/27 09:39:49;;;;;;;12.65;7.85;;;16.70;99.90;;;;;;4942145;29;20058;-70
2022/10/27 09:42:15;;;;;;;13.20;8.00;;;16.80;99.90;;;;;;4951997;29;20054;-69
2022/10/27 09:44:48;;;;;;;13.48;8.00;;;17.00;99.90;;;;;;4947712;29;20031;-67
2022/10/27 09:47:13;;;;;;;16.02;8.43;;;17.10;99.90;;;;;;4938501;29;20051;-69
2022/10/27 09:49:44;;;;;;;13.00;7.60;;;17.20;99.90;;;;;;4943425;29;20406;-69
2022/10/27 09:52:16;;;;;;;10.05;4.75;;;17.40;99.90;;;;;;4944394;29;20052;-69
2022/10/27 09:54:51;;;;;;;9.05;3.70;;;17.60;99.90;;;;;;4948564;29;20074;-69
2022/10/27 09:57:18;;;;;;;5.03;2.97;;;17.70;99.90;;;;;;4945086;28;20039;-69
2022/10/27 10:00:01;;;;;;;6.55;3.35;;;17.90;99.90;;;;;;4952158;29;20051;-69
2022/10/27 10:02:28;;;;;;;6.85;2.60;;;18.00;99.90;;;;;;4946775;28;20429;-69
2022/10/27 10:04:54;;;;;;;7.50;2.80;;;18.10;99.90;;;;;;4942039;29;20048;-69
2022/10/27 10:07:28;;;;;;;6.90;3.78;;;18.20;99.90;;;;;;4953310;28;20126;-69
2022/10/27 10:10:00;;;;;;;7.75;3.80;;;18.20;99.90;;;;;;4937540;29;20400;-69
2022/10/27 10:12:26;;;;;;;6.57;4.10;;;18.30;99.90;;;;;;4941181;29;20166;-69
2022/10/27 10:15:11;;;;;;;8.90;3.47;;;18.30;99.90;;;;;;4940067;29;20070;-69
2022/10/27 10:17:52;;;;;;;7.22;3.45;;;18.40;99.90;;;;;;4941228;29;20578;-70
2022/10/27 10:20:34;;;;;;;6.20;3.37;;;18.40;99.90;;;;;;4938331;29;20107;-69
2022/10/27 10:23:02;;;;;;;6.40;2.10;;;18.40;99.90;;;;;;4932215;29;20053;-68
2022/10/27 10:25:37;;;;;;;7.15;2.30;;;18.60;99.90;;;;;;4934283;29;20118;-68
2022/10/27 10:28:05;;;;;;;6.95;2.00;;;18.70;99.90;;;;;;4940293;29;20079;-68
2022/10/27 10:30:38;;;;;;;5.45;2.03;;;18.70;99.90;;;;;;4943497;29;20118;-69
2022/10/27 10:33:05;;;;;;;4.55;2.30;;;18.80;99.90;;;;;;4931858;28;22586;-68
2022/10/27 10:35:45;;;;;;;6.32;1.90;;;19.00;99.90;;;;;;4938735;29;20051;-69
2022/10/27 10:38:23;;;;;;;10.85;2.67;;;19.10;99.90;;;;;;4941130;28;20130;-69
2022/10/27 10:41:12;;;;;;;5.47;2.00;;;19.10;99.90;;;;;;4946727;29;20047;-67
2022/10/27 10:43:39;;;;;;;7.35;2.40;;;19.10;99.90;;;;;;4940377;29;20066;-69
2022/10/27 10:46:15;;;;;;;5.28;2.05;;;19.20;99.90;;;;;;4941849;28;20043;-69
2022/10/27 10:48:48;;;;;;;6.50;2.30;;;19.20;99.90;;;;;;4935843;29;20050;-68
2022/10/27 10:51:28;;;;;;;5.95;2.38;;;19.20;99.90;;;;;;4950604;29;20083;-70
2022/10/27 10:54:07;;;;;;;5.00;2.00;;;19.10;99.90;;;;;;4943047;29;20100;-69
2022/10/27 10:56:35;;;;;;;5.85;2.30;;;19.10;99.90;;;;;;4935208;29;20043;-69
2022/10/27 10:59:30;;;;;;;7.95;2.45;;;19.10;99.90;;;;;;4937111;29;20031;-69
2022/10/27 11:02:05;;;;;;;6.88;2.10;;;19.00;99.90;;;;;;4945583;29;20052;-69
2022/10/27 11:04:43;;;;;;;6.72;2.30;;;19.00;99.90;;;;;;4939592;29;20044;-69
2022/10/27 11:07:27;;;;;;;5.40;2.35;;;19.00;99.90;;;;;;4940525;29;20086;-69
2022/10/27 11:09:58;;;;;;;6.75;2.20;;;19.00;99.90;;;;;;4937473;29;20048;-69
2022/10/27 11:12:38;;;;;;;10.90;2.70;;;19.10;99.90;;;;;;4936698;29;20050;-69
2022/10/27 11:15:27;;;;;;;5.97;2.40;;;19.10;99.90;;;;;;4940367;29;20052;-69
2022/10/27 11:17:59;;;;;;;7.93;2.47;;;19.10;99.90;;;;;;4944495;29;20043;-70
2022/10/27 11:20:29;;;;;;;3.70;2.20;;;19.20;99.90;;;;;;4949129;29;20557;-69
2022/10/27 11:22:56;;;;;;;3.85;2.00;;;19.30;99.90;;;;;;4941429;29;20063;-69
2022/10/27 11:25:31;;;;;;;6.50;2.65;;;19.40;99.90;;;;;;4937221;29;20043;-69
2022/10/27 11:28:26;;;;;;;4.85;2.17;;;19.50;99.90;;;;;;4943366;28;20046;-69
2022/10/27 11:31:02;;;;;;;4.78;2.10;;;19.50;99.90;;;;;;4944370;29;20039;-69
2022/10/27 11:34:00;;;;;;;5.75;2.22;;;19.50;99.90;;;;;;4950403;28;20054;-68
2022/10/27 11:36:36;;;;;;;6.07;2.30;;;19.50;99.90;;;;;;4925822;29;20055;-69
2022/10/27 11:39:09;;;;;;;9.32;2.67;;;19.50;99.90;;;;;;4936138;28;20118;-69
2022/10/27 11:41:48;;;;;;;4.78;2.67;;;19.50;99.90;;;;;;4934784;29;20043;-68
2022/10/27 11:44:37;;;;;;;5.30;2.30;;;19.50;99.90;;;;;;4945637;29;20414;-69
2022/10/27 11:47:13;;;;;;;4.93;2.15;;;19.50;99.90;;;;;;4935181;29;20047;-69
2022/10/27 11:49:52;;;;;;;4.55;2.20;;;19.60;99.90;;;;;;4934297;29;21366;-70
2022/10/27 11:52:29;;;;;;;5.40;2.53;;;19.60;99.90;;;;;;4946844;29;20039;-69
2022/10/27 11:54:56;;;;;;;6.00;2.45;;;19.60;99.90;;;;;;4949366;29;20098;-69
2022/10/27 11:57:49;;;;;;;5.88;2.58;;;19.60;99.90;;;;;;4949787;29;20054;-69
2022/10/27 12:00:24;;;;;;;7.22;3.00;;;19.50;99.90;;;;;;4948018;29;20075;-70
2022/10/27 12:03:05;;;;;;;6.07;2.60;;;19.40;99.90;;;;;;4946809;29;20513;-69
2022/10/27 12:06:14;;;;;;;7.68;3.08;;;19.30;99.90;;;;;;4944005;29;20137;-69
2022/10/27 12:09:06;;;;;;;6.97;2.88;;;19.30;99.90;;;;;;4948973;29;20562;-68
2022/10/27 12:11:47;;;;;;;44.33;5.57;;;19.30;99.90;;;;;;4945811;29;20086;-69
2022/10/27 12:14:31;;;;;;;5.32;2.63;;;19.20;99.90;;;;;;4933029;29;20502;-69
2022/10/27 12:17:10;;;;;;;66.22;9.07;;;19.30;99.90;;;;;;4943356;29;20047;-69
2022/10/27 12:19:40;;;;;;;55.10;5.85;;;19.30;99.90;;;;;;4950741;29;20050;-69
2022/10/27 12:22:13;;;;;;;6.32;3.05;;;19.40;99.90;;;;;;4941253;28;20044;-69
2022/10/27 12:25:00;;;;;;;8.35;3.00;;;19.40;99.90;;;;;;4944772;28;20048;-69
2022/10/27 12:27:31;;;;;;;6.80;2.90;;;19.40;99.90;;;;;;4941804;29;20051;-69
2022/10/27 12:30:09;;;;;;;7.85;3.00;;;19.40;99.90;;;;;;4951308;29;20051;-69
2022/10/27 12:33:11;;;;;;;7.32;3.17;;;19.40;99.90;;;;;;4950034;28;20082;-70
2022/10/27 12:36:01;;;;;;;7.32;3.25;;;19.50;99.90;;;;;;4952285;29;20078;-69
2022/10/27 12:38:35;;;;;;;5.82;2.78;;;19.50;99.90;;;;;;4944415;29;20046;-69
2022/10/27 12:41:29;;;;;;;4.85;2.80;;;19.60;99.90;;;;;;4934783;29;20521;-69
2022/10/27 12:44:25;;;;;;;5.85;2.90;;;19.60;99.90;;;;;;4941379;29;20040;-69
2022/10/27 12:47:05;;;;;;;8.30;3.03;;;19.60;99.90;;;;;;4933753;29;20043;-69
2022/10/27 12:50:00;;;;;;;8.82;3.30;;;19.60;99.90;;;;;;4948424;29;20050;-69
2022/10/27 12:52:27;;;;;;;7.57;2.70;;;19.60;99.90;;;;;;4940840;29;20136;-69